^^
Datos históricos de la estación: Murcia-Puente Tocinos
Diario Informe para Marzo 31, 2019 Unidades:  Ingés    Métrico   Ambas
Diario Semanal Mensual Anual
  Máxima: Mínima: Promedio:
Temperatura: 77.9 °F 60.3 °F 68.9 °F
Punto de rocio: 54.9 °F 47.1 °F 51.4 °F
Humedad: 77% 35.9% 56%
Velocidad viento: 13mph 0mph 5.4mph
Racha viento: 24.2mph - -
Viento- - ESE
Presión: 30.2 in 30.1 in -
Precipitación: 0 in    
 
 
Tabla de datos para Marzo 31, 2019
Hora Temperatura Punto de rocio Presión Viento Velocidad viento Racha viento Humedad Intensidad lluvia(por hora) Nubes
00:04 64.2 °F 54.7 °F 30.2 in NE 4 mph 7 mph 71% 0 in
00:09 64.2 °F 54.7 °F 30.2 in NE 4.1 mph 7 mph 71% 0 in
00:14 64.2 °F 54.7 °F 30.2 in NE 4.3 mph 6 mph 71% 0 in
00:19 64.2 °F 54.7 °F 30.2 in NNE 4.2 mph 6 mph 71% 0 in
00:24 64.4 °F 54.7 °F 30.2 in NE 4 mph 6.2 mph 71% 0 in
00:29 64.2 °F 54.7 °F 30.2 in NE 3.7 mph 6 mph 71% 0 in
00:34 64.2 °F 54.7 °F 30.2 in NE 3.1 mph 6 mph 71% 0 in
00:39 64.2 °F 54.7 °F 30.2 in NE 3.3 mph 6 mph 71% 0 in
00:44 64 °F 54.5 °F 30.2 in NE 3.6 mph 6 mph 71% 0 in
00:49 64 °F 54.3 °F 30.2 in NE 3.7 mph 6.9 mph 71% 0 in
00:54 64 °F 54.7 °F 30.2 in NE 4 mph 7 mph 71.7% 0 in
00:59 63.9 °F 54.7 °F 30.2 in NE 3.9 mph 6 mph 72% 0 in
01:04 63.9 °F 54.7 °F 30.2 in NE 3.6 mph 5.9 mph 72% 0 in
01:09 63.7 °F 54.5 °F 30.2 in NE 3.6 mph 6 mph 72% 0 in
01:14 63.7 °F 54.5 °F 30.2 in NE 3.6 mph 6 mph 72% 0 in
01:19 63.7 °F 54.7 °F 30.2 in NE 3.4 mph 5 mph 72.6% 0 in
01:24 63.7 °F 54.9 °F 30.2 in NE 2.9 mph 5 mph 72.9% 0 in
01:29 63.5 °F 54.7 °F 30.2 in NE 2.6 mph 5 mph 73% 0 in
01:34 63.5 °F 54.7 °F 30.2 in NE 2 mph 4.6 mph 73% 0 in
01:39 63.3 °F 54.5 °F 30.2 in NE 2 mph 5 mph 73% 0 in
01:44 63.3 °F 54.5 °F 30.2 in NE 2 mph 3.6 mph 73% 0 in
01:49 63.3 °F 54.5 °F 30.2 in ENE 1.9 mph 4.6 mph 73% 0 in
01:54 63.1 °F 54.3 °F 30.2 in NE 1.8 mph 5 mph 73% 0 in
01:59 63.1 °F 54.3 °F 30.2 in NE 1.6 mph 4 mph 73% 0 in
02:04 63 °F 54.1 °F 30.2 in Este 1.4 mph 4.6 mph 73% 0 in
02:09 63 °F 54.1 °F 30.2 in Este 1.7 mph 5 mph 73% 0 in
02:14 62.6 °F 53.8 °F 30.2 in Este 2.4 mph 4.6 mph 73% 0 in
02:19 62.4 °F 54 °F 30.2 in Este 2.2 mph 5 mph 74% 0 in
02:24 62.4 °F 54 °F 30.2 in Este 1.8 mph 2 mph 74% 0 in
02:29 62.4 °F 54 °F 30.2 in Este 1.1 mph 2.9 mph 74% 0 in
02:34 62.4 °F 54.1 °F 30.2 in Calm   3 mph 74% 0 in
02:39 62.6 °F 54.1 °F 30.2 in SE 0.5 mph 3 mph 74% 0 in
02:44 62.4 °F 54 °F 30.2 in SE 1.4 mph 2.4 mph 74% 0 in
02:49 62.4 °F 54 °F 30.2 in SE 0.9 mph 2 mph 74% 0 in
02:54 62.4 °F 54 °F 30.2 in Calm     74% 0 in
02:59 62.4 °F 54.3 °F 30.2 in Calm     74.9% 0 in
03:04 62.4 °F 54.3 °F 30.2 in Calm     75% 0 in
03:09 62.4 °F 54.3 °F 30.2 in Calm     74.7% 0 in
03:14 62.4 °F 54.1 °F 30.2 in Calm     74.3% 0 in
03:19 62.2 °F 54.1 °F 30.2 in Calm     74.6% 0 in
03:24 62.2 °F 54.3 °F 30.2 in Calm     75% 0 in
03:29 62.4 °F 54.3 °F 30.2 in Calm     75% 0 in
03:34 62.2 °F 54.3 °F 30.2 in Calm     75% 0 in
03:39 62.2 °F 54.3 °F 30.2 in Calm     75% 0 in
03:44 62.2 °F 54.1 °F 30.2 in Calm   2.9 mph 75% 0 in
03:49 62.2 °F 54.1 °F 30.2 in Calm   3 mph 75% 0 in
03:54 62.2 °F 54.1 °F 30.2 in Calm   3.1 mph 75% 0 in
03:59 62.1 °F 54 °F 30.2 in SE 0.7 mph 3.5 mph 75% 0 in
04:04 61.9 °F 54.1 °F 30.2 in SE 1.8 mph 3 mph 75.9% 0 in
04:09 61.9 °F 54.1 °F 30.2 in SE 1.1 mph 2.3 mph 76% 0 in
04:14 61.7 °F 54.1 °F 30.2 in Calm   2 mph 76% 0 in
04:19 61.7 °F 54 °F 30.2 in Calm   3.6 mph 75.5% 0 in
04:24 61.9 °F 53.8 °F 30.2 in Calm   4.6 mph 74.8% 0 in
04:29 61.9 °F 53.4 °F 30.2 in SE 1.1 mph 5 mph 74% 0 in
04:34 61.9 °F 53.4 °F 30.2 in SE 2.9 mph 5.8 mph 74% 0 in
04:39 61.7 °F 53.2 °F 30.2 in SE 3 mph 6.2 mph 74% 0 in
04:44 61.3 °F 53.2 °F 30.2 in Sur 3.1 mph 6.2 mph 74.5% 0 in
04:49 61.2 °F 53.2 °F 30.2 in Sur 3.4 mph 6 mph 75% 0 in
04:54 61 °F 53.4 °F 30.2 in SSO 4 mph 6.2 mph 75.9% 0 in
04:59 61 °F 53.2 °F 30.2 in SSO 4 mph 6.9 mph 76% 0 in
05:04 61 °F 53.4 °F 30.2 in SSO 4 mph 7 mph 76% 0 in
05:09 61 °F 53.4 °F 30.2 in SSO 4.1 mph 6.9 mph 76% 0 in
05:14 61 °F 53.4 °F 30.2 in SSO 4.3 mph 7 mph 76% 0 in
05:19 61 °F 53.4 °F 30.2 in SSO 4.7 mph 9.2 mph 76% 0 in
05:24 61 °F 53.4 °F 30.2 in SSO 5.4 mph 9 mph 76% 0 in
05:29 61 °F 53.4 °F 30.2 in SO 5.2 mph 7 mph 76% 0 in
05:34 61 °F 53.4 °F 30.2 in SO 4.7 mph 7 mph 76% 0 in
05:39 61 °F 53.4 °F 30.2 in SO 4.5 mph 7 mph 76% 0 in
05:44 61 °F 53.4 °F 30.2 in SO 4.3 mph 9.2 mph 76% 0 in
05:49 61 °F 53.4 °F 30.2 in SO 4.5 mph 9.2 mph 76% 0 in
05:54 60.8 °F 53.2 °F 30.2 in SO 4.7 mph 9 mph 76% 0 in
05:59 60.6 °F 53.1 °F 30.2 in OSO 4.4 mph 6.9 mph 76% 0 in
06:04 60.6 °F 53.1 °F 30.2 in SO 4 mph 7 mph 76% 0 in
06:09 60.6 °F 52.9 °F 30.2 in OSO 3.9 mph 6.2 mph 76% 0 in
06:14 60.4 °F 52.9 °F 30.2 in SO 3.6 mph 6 mph 76.2% 0 in
06:19 60.4 °F 53.2 °F 30.2 in OSO 3.6 mph 6 mph 77% 0 in
06:24 60.4 °F 53.2 °F 30.2 in OSO 3.6 mph 6 mph 77% 0 in
06:29 60.4 °F 53.1 °F 30.2 in OSO 3.4 mph 5.2 mph 76.7% 0 in
06:34 60.3 °F 52.9 °F 30.2 in OSO 2.9 mph 5.4 mph 76.2% 0 in
06:39 60.3 °F 52.7 °F 30.2 in OSO 3.2 mph 6 mph 76% 0 in
06:44 60.3 °F 52.7 °F 30.2 in OSO 3.6 mph 6 mph 76% 0 in
06:49 60.3 °F 52.7 °F 30.2 in SSO 3.6 mph 7.4 mph 76% 0 in
06:54 60.3 °F 52.7 °F 30.2 in SO 3.6 mph 7.4 mph 76% 0 in
06:59 60.3 °F 52.3 °F 30.2 in SO 4 mph 7.4 mph 75.1% 0 in
07:04 60.3 °F 52.3 °F 30.2 in OSO 4.7 mph 7 mph 75% 0 in
07:09 60.3 °F 52.3 °F 30.2 in OSO 4.3 mph 6.2 mph 75% 0 in
07:14 60.3 °F 52.3 °F 30.2 in OSO 3.6 mph 6.9 mph 75% 0 in
07:19 60.3 °F 52.3 °F 30.2 in OSO 3.6 mph 7 mph 74.9% 0 in
07:24 60.3 °F 52.3 °F 30.2 in OSO 3.6 mph 5.2 mph 75% 0 in
07:29 60.4 °F 52.5 °F 30.2 in SO 3.4 mph 5 mph 74.9% 0 in
07:34 60.4 °F 52.5 °F 30.2 in SO 2.9 mph 5 mph 74.7% 0 in
07:39 60.6 °F 52.7 °F 30.2 in OSO 2.9 mph 5 mph 74.9% 0 in
07:44 61 °F 52.5 °F 30.2 in OSO 2.9 mph 5 mph 74% 0 in
07:49 61 °F 52.7 °F 30.2 in OSO 2.7 mph 5 mph 74% 0 in
07:54 61.2 °F 52.9 °F 30.2 in Oeste 2.4 mph 5.2 mph 74% 0 in
07:59 61.3 °F 52.9 °F 30.2 in Oeste 2.6 mph 5.2 mph 74% 0 in
08:04 61.3 °F 52.9 °F 30.2 in Oeste 2.9 mph 5 mph 74% 0 in
08:09 61.3 °F 52.9 °F 30.2 in SO 3.2 mph 6.9 mph 73.7% 0 in
08:14 61.7 °F 52.9 °F 30.2 in SO 3.6 mph 7 mph 72.9% 0 in
08:19 61.9 °F 52.7 °F 30.2 in SSO 3.7 mph 6.9 mph 71.7% 0 in
08:24 62.1 °F 52.7 °F 30.2 in SO 4 mph 7 mph 71.6% 0 in
08:29 62.1 °F 52.5 °F 30.2 in SO 4 mph 6 mph 71% 0 in
08:34 62.2 °F 52.5 °F 30.2 in SSO 4 mph 6 mph 70.4% 0 in
08:39 62.6 °F 52.5 °F 30.2 in SO 3.9 mph 6.2 mph 70% 0 in
08:44 62.8 °F 52.7 °F 30.2 in SO 3.6 mph 6.4 mph 69.7% 0 in
08:49 63.1 °F 52.7 °F 30.2 in OSO 3.7 mph 7 mph 69% 0 in
08:54 63.3 °F 52.9 °F 30.2 in OSO 4 mph 7 mph 69% 0 in
08:59 63.7 °F 53.1 °F 30.2 in SO 3.7 mph 7 mph 68.3% 0 in
09:04 64 °F 53.1 °F 30.2 in OSO 3.1 mph 6.2 mph 67.1% 0 in
09:09 64.2 °F 52.7 °F 30.2 in OSO 3.5 mph 8.1 mph 66.2% 0 in
09:14 64.2 °F 52.7 °F 30.2 in OSO 4.3 mph 8.1 mph 66.3% 0 in
09:19 64.6 °F 52.9 °F 30.2 in OSO 4.3 mph 8 mph 66% 0 in
09:24 64.8 °F 53.1 °F 30.2 in OSO 4.3 mph 7 mph 65.9% 0 in
09:29 65.3 °F 53.1 °F 30.2 in Sur 4 mph 8.1 mph 64.5% 0 in
09:34 65.5 °F 53.1 °F 30.2 in SSO 3.6 mph 8 mph 64% 0 in
09:39 65.7 °F 53.2 °F 30.2 in Sur 3.7 mph 6.9 mph 64% 0 in
09:44 66 °F 53.1 °F 30.2 in SSO 4 mph 7 mph 63.1% 0 in
09:49 66.4 °F 53.1 °F 30.2 in SSO 3.9 mph 7.4 mph 62.2% 0 in
09:54 66.6 °F 53.1 °F 30.2 in OSO 3.6 mph 7 mph 62% 0 in
09:59 66.6 °F 52.9 °F 30.2 in SO 3.9 mph 6.9 mph 61.2% 0 in
10:04 66.7 °F 53.2 °F 30.2 in Sur 4.3 mph 7 mph 61.6% 0 in
10:09 67.6 °F 53.2 °F 30.2 in SE 3.4 mph 5 mph 60.2% 0 in
10:14 68.2 °F 53.1 °F 30.2 in ONO 1.8 mph 5.4 mph 58.5% 0 in
10:19 68.4 °F 52.7 °F 30.2 in SSO 2.3 mph 6.9 mph 57.5% 0 in
10:24 68.5 °F 52.5 °F 30.2 in SSE 3.1 mph 7 mph 56.4% 0 in
10:29 69.3 °F 52.2 °F 30.2 in SSE 2.6 mph 5 mph 54.7% 0 in
10:34 69.8 °F 51.8 °F 30.2 in SSO 1.8 mph 3.5 mph 52.7% 0 in
10:39 70.3 °F 51.4 °F 30.2 in SSE 1.7 mph 4.7 mph 51.2% 0 in
10:44 71.1 °F 51.4 °F 30.2 in NNE 1.4 mph 5 mph 49.9% 0 in
10:49 71.8 °F 51.4 °F 30.2 in NE 1.6 mph 5 mph 48.6% 0 in
10:54 72.3 °F 50.9 °F 30.2 in NNE 1.8 mph 5.9 mph 46.8% 0 in
10:59 72.7 °F 50.7 °F 30.2 in North 2.1 mph 6 mph 46% 0 in
11:04 72.9 °F 50.5 °F 30.2 in NNE 2.4 mph 6 mph 45.7% 0 in
11:09 72.5 °F 50.5 °F 30.2 in NNO 2.6 mph 6 mph 46% 0 in
11:14 72.3 °F 50.5 °F 30.2 in NE 3.1 mph 9.2 mph 46.1% 0 in
11:19 72.3 °F 50 °F 30.2 in NE 3.5 mph 9 mph 45.2% 0 in
11:24 72.7 °F 49.3 °F 30.2 in NE 4.3 mph 8.5 mph 43.6% 0 in
11:29 73 °F 49.6 °F 30.2 in NE 4.3 mph 9.2 mph 43.7% 0 in
11:34 73.2 °F 49.3 °F 30.2 in NE 4.3 mph 13.8 mph 42.9% 0 in
11:39 73.2 °F 48 °F 30.2 in NE 5.2 mph 14.5 mph 41% 0 in
11:44 73.4 °F 47.1 °F 30.2 in NE 6.9 mph 15 mph 39.5% 0 in
11:49 73.4 °F 48.2 °F 30.2 in NE 7.3 mph 14 mph 40.7% 0 in
11:54 73.9 °F 48 °F 30.2 in NE 8.1 mph 12.7 mph 40.2% 0 in
11:59 73.8 °F 48.2 °F 30.2 in NE 8.1 mph 13.8 mph 40.5% 0 in
12:04 73.9 °F 48.7 °F 30.2 in NE 8.1 mph 14 mph 41% 0 in
12:09 74.3 °F 48.9 °F 30.2 in ENE 7.9 mph 14 mph 40.7% 0 in
12:14 74.8 °F 48.7 °F 30.2 in ENE 7.6 mph 15 mph 39.8% 0 in
12:19 74.7 °F 48.7 °F 30.2 in NNE 7.1 mph 15 mph 40% 0 in
12:24 74.7 °F 48.9 °F 30.2 in North 6.2 mph 10.4 mph 40.2% 0 in
12:29 75.2 °F 48.9 °F 30.2 in NE 5.5 mph 9 mph 39.6% 0 in
12:34 75.7 °F 48.7 °F 30.2 in NE 4.3 mph 10 mph 38.5% 0 in
12:39 75.9 °F 47.1 °F 30.2 in NE 4.8 mph 14 mph 36.2% 0 in
12:44 75.9 °F 47.1 °F 30.2 in NE 5.9 mph 16.3 mph 36.2% 0 in
12:49 75.6 °F 47.1 °F 30.2 in NE 6.3 mph 16 mph 36.4% 0 in
12:54 75.7 °F 47.1 °F 30.2 in NE 6.9 mph 13 mph 36.3% 0 in
12:59 76.1 °F 47.3 °F 30.2 in NE 7.1 mph 15.2 mph 36.2% 0 in
13:04 76.3 °F 48.2 °F 30.2 in Este 7.4 mph 15.2 mph 37.1% 0 in
13:09 76.5 °F 48.6 °F 30.2 in ENE 6.8 mph 16.1 mph 37.3% 0 in
13:14 76.6 °F 49.1 °F 30.2 in NE 5.9 mph 16.1 mph 37.8% 0 in
13:19 76.6 °F 48.6 °F 30.2 in NNE 6.9 mph 16 mph 37% 0 in
13:24 76.6 °F 48.6 °F 30.2 in NE 8.7 mph 16.3 mph 37.3% 0 in
13:29 76.5 °F 48.9 °F 30.2 in NE 8.9 mph 16 mph 37.9% 0 in
13:34 76.5 °F 48.4 °F 30.2 in NNE 9.2 mph 14 mph 37.4% 0 in
13:39 76.5 °F 48 °F 30.2 in NNE 8.6 mph 15.9 mph 36.6% 0 in
13:44 76.5 °F 47.5 °F 30.2 in NE 7.4 mph 17.3 mph 35.9% 0 in
13:49 76.5 °F 48.4 °F 30.2 in NE 8.3 mph 17 mph 37.3% 0 in
13:54 76.6 °F 48.4 °F 30.2 in NE 10 mph 16 mph 37.1% 0 in
13:59 76.6 °F 48.6 °F 30.2 in NE 9.4 mph 16.3 mph 37.2% 0 in
14:04 76.5 °F 48.6 °F 30.2 in NE 8.5 mph 17.3 mph 37.4% 0 in
14:09 76.5 °F 49.1 °F 30.2 in NE 8.6 mph 17 mph 38% 0 in
14:14 76.6 °F 49.1 °F 30.2 in NE 8.7 mph 16.1 mph 38% 0 in
14:19 76.6 °F 48.9 °F 30.2 in NE 9.2 mph 19 mph 37.9% 0 in
14:24 76.5 °F 49.3 °F 30.2 in NE 10 mph 19 mph 38.4% 0 in
14:29 76.6 °F 49.8 °F 30.2 in ENE 9.7 mph 16.1 mph 38.8% 0 in
14:34 76.8 °F 50 °F 30.2 in ENE 9.2 mph 20.8 mph 38.9% 0 in
14:39 76.8 °F 50 °F 30.2 in ENE 9 mph 21 mph 39% 0 in
14:44 76.8 °F 50.2 °F 30.2 in NE 8.7 mph 20 mph 39.1% 0 in
14:49 76.6 °F 49.8 °F 30.2 in ENE 9.2 mph 20 mph 39.1% 0 in
14:54 77 °F 50.9 °F 30.2 in NE 10.2 mph 16.1 mph 40.1% 0 in
14:59 76.8 °F 51.3 °F 30.2 in NE 9.6 mph 19.7 mph 40.8% 0 in
15:04 77 °F 51.3 °F 30.2 in NE 8.7 mph 20 mph 40.5% 0 in
15:09 77 °F 50.9 °F 30.2 in NE 9.2 mph 20 mph 40% 0 in
15:14 77 °F 50.2 °F 30.2 in NE 10 mph 18.5 mph 39.1% 0 in
15:19 76.8 °F 50 °F 30.2 in NE 10.4 mph 19 mph 39% 0 in
15:24 77 °F 50.5 °F 30.2 in NE 11.2 mph 19 mph 39.6% 0 in
15:29 76.6 °F 49.8 °F 30.2 in NE 11.6 mph 18.4 mph 39% 0 in
15:34 76.6 °F 50 °F 30.2 in NE 12.3 mph 18 mph 39.3% 0 in
15:39 77.4 °F 50.2 °F 30.2 in NE 11 mph 18 mph 38.6% 0 in
15:44 77.9 °F 48.9 °F 30.2 in ENE 8.7 mph 16 mph 36.1% 0 in
15:49 77.5 °F 49.3 °F 30.2 in NE 8.5 mph 16.1 mph 37.1% 0 in
15:54 77.2 °F 49.5 °F 30.2 in NE 8.1 mph 18.4 mph 38.1% 0 in
15:59 77.2 °F 50 °F 30.2 in NE 8.9 mph 18 mph 38.5% 0 in
16:04 77.4 °F 49.8 °F 30.2 in NE 10.2 mph 15 mph 38.2% 0 in
16:09 77 °F 50.2 °F 30.2 in NE 10 mph 21.9 mph 39.1% 0 in
16:14 76.8 °F 50 °F 30.2 in NE 9.7 mph 22 mph 39% 0 in
16:19 77.4 °F 50.4 °F 30.2 in NE 9.7 mph 18.1 mph 38.8% 0 in
16:24 76.8 °F 49.8 °F 30.2 in NE 9.7 mph 22.3 mph 38.7% 0 in
16:29 76.5 °F 49.8 °F 30.2 in NNE 10.9 mph 22 mph 39.1% 0 in
16:34 76.5 °F 49.8 °F 30.2 in NE 13 mph 20 mph 39% 0 in
16:39 76.6 °F 49.6 °F 30.2 in ENE 11.9 mph 20 mph 38.7% 0 in
16:44 76.8 °F 49.8 °F 30.2 in NE 10 mph 17.5 mph 38.6% 0 in
16:49 76.8 °F 49.3 °F 30.2 in NE 9.9 mph 17 mph 38% 0 in
16:54 76.5 °F 49.1 °F 30.2 in NE 9.7 mph 18.5 mph 38.3% 0 in
16:59 76.3 °F 49.3 °F 30.2 in ENE 10.1 mph 19 mph 38.7% 0 in
17:04 76.3 °F 49.1 °F 30.2 in NE 10.7 mph 18.4 mph 38.6% 0 in
17:09 76.1 °F 48.7 °F 30.2 in NE 10.4 mph 18 mph 38.2% 0 in
17:14 75.7 °F 48.7 °F 30.2 in NE 10 mph 17.3 mph 38.5% 0 in
17:19 75.9 °F 48.6 °F 30.2 in ENE 10.1 mph 17 mph 38% 0 in
17:24 76.3 °F 48.6 °F 30.2 in ENE 10.2 mph 23.7 mph 37.8% 0 in
17:29 75.9 °F 48.2 °F 30.2 in ENE 10.4 mph 24.2 mph 37.5% 0 in
17:34 75.7 °F 48.4 °F 30.2 in NE 10.7 mph 24 mph 38% 0 in
17:39 75.6 °F 48.2 °F 30.2 in NE 10.5 mph 19 mph 38% 0 in
17:44 75.7 °F 48.2 °F 30.2 in NE 10.2 mph 19 mph 37.9% 0 in
17:49 75.7 °F 48.4 °F 30.2 in NE 10.2 mph 23 mph 37.9% 0 in
17:54 75.6 °F 48 °F 30.2 in NE 10.2 mph 23 mph 37.9% 0 in
17:59 75.6 °F 48.9 °F 30.2 in NE 10 mph 16 mph 39.1% 0 in
18:04 75.6 °F 49.5 °F 30.2 in ENE 9.7 mph 15 mph 40% 0 in
18:09 75.7 °F 49.8 °F 30.1 in ENE 9.3 mph 16.1 mph 40.1% 0 in
18:14 75.7 °F 50 °F 30.1 in NE 8.7 mph 17.5 mph 40.4% 0 in
18:19 75 °F 49.8 °F 30.1 in NE 9.4 mph 17 mph 41% 0 in
18:24 75 °F 49.8 °F 30.1 in NE 10.7 mph 17.5 mph 40.9% 0 in
18:29 75 °F 50.4 °F 30.1 in NE 10.5 mph 17 mph 41.9% 0 in
18:34 74.8 °F 49.6 °F 30.1 in NE 10.2 mph 17.3 mph 41% 0 in
18:39 74.8 °F 50 °F 30.1 in NE 10.2 mph 20.7 mph 41.7% 0 in
18:44 75 °F 49.6 °F 30.1 in NE 10.2 mph 21 mph 41% 0 in
18:49 74.8 °F 50 °F 30.1 in NE 10.4 mph 16.1 mph 41.7% 0 in
18:54 74.7 °F 50 °F 30.1 in NE 10.7 mph 16 mph 42% 0 in
18:59 74.8 °F 50 °F 30.1 in ENE 9.9 mph 15 mph 41.5% 0 in
19:04 75 °F 50.2 °F 30.1 in ENE 8.7 mph 14.5 mph 41.7% 0 in
19:09 74.8 °F 50.5 °F 30.1 in NE 8.3 mph 16.8 mph 42.4% 0 in
19:14 74.7 °F 50.7 °F 30.1 in NE 7.6 mph 17.8 mph 43% 0 in
19:19 74.7 °F 51.1 °F 30.1 in NE 8.2 mph 18 mph 43.7% 0 in
19:24 74.7 °F 51.3 °F 30.1 in NE 9.2 mph 13 mph 44% 0 in
19:29 74.7 °F 51.3 °F 30.1 in NE 8.5 mph 15 mph 44% 0 in
19:34 74.7 °F 50.9 °F 30.1 in NE 7.4 mph 15 mph 43.3% 0 in
19:39 74.3 °F 50.4 °F 30.1 in NE 7.6 mph 15 mph 42.9% 0 in
19:44 73.9 °F 50.4 °F 30.1 in NE 8.1 mph 14 mph 43.6% 0 in
19:49 73.8 °F 50.5 °F 30.1 in NE 8.5 mph 15 mph 44% 0 in
19:54 73.6 °F 49.8 °F 30.1 in NE 9.2 mph 15.2 mph 43.2% 0 in
19:59 73.4 °F 49.8 °F 30.1 in NE 9.5 mph 16.1 mph 43.6% 0 in
20:04 73.2 °F 49.8 °F 30.1 in NE 10 mph 16.3 mph 43.8% 0 in
20:09 73 °F 49.6 °F 30.1 in NE 9.4 mph 16 mph 43.6% 0 in
20:14 72.9 °F 49.1 °F 30.1 in NE 8.5 mph 15 mph 43.1% 0 in
20:19 72.9 °F 49.5 °F 30.1 in NE 8.3 mph 14 mph 43.6% 0 in
20:24 72.9 °F 49.3 °F 30.1 in NE 8.1 mph 14.5 mph 43.3% 0 in
20:29 72.7 °F 49.3 °F 30.1 in NE 8.1 mph 15.2 mph 43.6% 0 in
20:34 72.3 °F 48.6 °F 30.1 in NE 8.1 mph 15 mph 43% 0 in
20:39 72.1 °F 48.7 °F 30.1 in NE 7.9 mph 15 mph 43.7% 0 in
20:44 72 °F 48.9 °F 30.1 in NE 7.6 mph 13 mph 44% 0 in
20:49 72 °F 48.6 °F 30.1 in ENE 7.3 mph 13 mph 43.5% 0 in
20:54 71.8 °F 48 °F 30.1 in NE 6.9 mph 12 mph 43% 0 in
20:59 71.6 °F 47.8 °F 30.1 in NE 6.9 mph 12.3 mph 43% 0 in
21:04 71.4 °F 47.8 °F 30.1 in NE 6.9 mph 13 mph 43.2% 0 in
21:09 71.2 °F 48.2 °F 30.1 in NE 7.1 mph 12 mph 44% 0 in
21:14 71.2 °F 48.2 °F 30.1 in NE 7.6 mph 12 mph 44.1% 0 in
21:19 71.1 °F 48.4 °F 30.1 in NE 6.7 mph 9.2 mph 44.7% 0 in
21:24 70.9 °F 48.6 °F 30.1 in NE 5.2 mph 9 mph 45% 0 in
21:29 70.7 °F 48.7 °F 30.1 in NE 5 mph 9.7 mph 45.9% 0 in
21:34 70.3 °F 48.6 °F 30.2 in NE 4.7 mph 10 mph 46% 0 in
21:39 70.2 °F 48.4 °F 30.2 in NE 5 mph 8.5 mph 46% 0 in
21:44 70 °F 48.4 °F 30.2 in NE 5.4 mph 9.7 mph 46.3% 0 in
21:49 69.6 °F 48.6 °F 30.2 in NE 5.4 mph 10 mph 47% 0 in
21:54 69.6 °F 48.9 °F 30.2 in NE 5.4 mph 9 mph 47.6% 0 in
21:59 69.4 °F 49.1 °F 30.2 in NE 5.3 mph 8.1 mph 48.3% 0 in
22:04 69.3 °F 49.3 °F 30.2 in NE 5.2 mph 8 mph 49.1% 0 in
22:09 69.1 °F 49.6 °F 30.2 in NE 4.8 mph 7 mph 50% 0 in
22:14 68.9 °F 50 °F 30.2 in NE 4 mph 7.4 mph 50.8% 0 in
22:19 68.7 °F 50.4 °F 30.2 in NE 4.1 mph 8.1 mph 52% 0 in
22:24 68.5 °F 50.7 °F 30.2 in NE 4.3 mph 8 mph 53% 0 in
22:29 68.4 °F 51.1 °F 30.2 in NE 4 mph 7 mph 54% 0 in
22:34 68.4 °F 51.4 °F 30.2 in NE 3.6 mph 6.2 mph 54.9% 0 in
22:39 68.2 °F 51.8 °F 30.2 in NE 3.6 mph 6.2 mph 55.7% 0 in
22:44 68 °F 51.8 °F 30.2 in NE 3.6 mph 6 mph 56% 0 in
22:49 68 °F 51.6 °F 30.2 in NE 3.6 mph 6 mph 56% 0 in
22:54 67.8 °F 51.8 °F 30.2 in NE 3.6 mph 6 mph 56.7% 0 in
22:59 67.8 °F 52 °F 30.2 in NE 3.4 mph 5 mph 57% 0 in
23:04 67.8 °F 52.3 °F 30.2 in Este 2.9 mph 5 mph 57.6% 0 in
23:09 67.6 °F 52.3 °F 30.2 in NE 2.9 mph 5 mph 58% 0 in
23:14 67.6 °F 52.5 °F 30.2 in NE 2.9 mph 6.2 mph 58.6% 0 in
23:19 67.5 °F 52.7 °F 30.2 in ENE 3 mph 6 mph 59% 0 in
23:24 67.5 °F 53.1 °F 30.2 in ENE 3.1 mph 5 mph 60% 0 in
23:29 67.5 °F 52.7 °F 30.2 in ENE 2.9 mph 5.2 mph 59.2% 0 in
23:34 67.5 °F 52.5 °F 30.2 in NE 2.4 mph 5.4 mph 59% 0 in
23:39 67.3 °F 52.5 °F 30.2 in NE 2.6 mph 7.4 mph 59% 0 in
23:44 67.3 °F 52.7 °F 30.2 in Este 2.9 mph 7 mph 59.6% 0 in
23:49 67.1 °F 52.7 °F 30.2 in ESE 2.5 mph 5 mph 60% 0 in
23:54 66.9 °F 52.5 °F 30.2 in ESE 2 mph 5 mph 60% 0 in
23:59 66.9 °F 52.7 °F 30.2 in ESE 1.7 mph 3 mph 60.5% 0 in
Murcia-Puente Tocinos, España
Compliments of Weather Underground - 3 mb

La estación de MeteoMurcia.com, publica sus datos en los siguientes proyectos:

Weather Underground PWS IMURCIAP2 Meteoclimatic www.awekas.at

W3Counter
Web Analytics